Time;durP1;ratioP1;P1;durP2;ratioP2;P2;SDS_P1;SDS_P2;PMS_P1;PMS_P2;Temp;Humidity;BMP_temperature;BMP_pressure;BME280_temperature;BME280_humidity;BME280_pressure;Samples;Min_cycle;Max_cycle;Signal;HPM_P1;HPM_P2
2022/11/12 00:01:02;;;;;;;3.80;2.28;;;;;;;3.28;74.71;96881.91;6181602;28;20489;-63
2022/11/12 00:04:08;;;;;;;4.75;3.15;;;;;;;3.20;75.01;96902.13;6182295;28;20426;-62
2022/11/12 00:07:12;;;;;;;5.78;3.25;;;;;;;3.14;75.54;96875.47;6182626;28;20042;-62
2022/11/12 00:10:16;;;;;;;;;;;;;;;3.13;75.84;96857.31;6182328;28;20042;-62
2022/11/12 00:13:19;;;;;;;3.78;2.58;;;;;;;3.02;76.25;96869.84;6177814;28;20354;-63
2022/11/12 00:16:24;;;;;;;6.43;3.53;;;;;;;2.97;76.91;96862.19;6181659;28;20566;-62
2022/11/12 00:19:25;;;;;;;5.72;3.45;;;;;;;3.02;76.74;96857.69;6179091;28;20050;-62
2022/11/12 00:22:31;;;;;;;6.75;3.75;;;;;;;2.99;77.05;96847.41;6187096;28;20050;-63
2022/11/12 00:25:36;;;;;;;6.93;4.20;;;;;;;3.10;76.63;96837.47;6185837;28;20034;-62
2022/11/12 00:28:45;;;;;;;4.03;3.38;;;;;;;3.17;76.19;96832.03;6183318;28;20073;-62
2022/11/12 00:31:49;;;;;;;6.85;3.42;;;;;;;3.14;76.13;96823.47;6187859;28;20058;-62
2022/11/12 00:34:56;;;;;;;8.60;2.65;;;;;;;3.13;75.98;96811.34;6181949;28;20047;-64
2022/11/12 00:38:00;;;;;;;3.90;2.35;;;;;;;3.22;76.10;96830.97;6186086;28;20736;-62
2022/11/12 00:41:07;;;;;;;5.55;2.33;;;;;;;3.21;75.77;96823.25;6186760;28;20034;-61
2022/11/12 00:44:13;;;;;;;5.63;2.95;;;;;;;3.24;75.98;96805.78;6185036;28;20057;-61
2022/11/12 00:47:17;;;;;;;2.85;1.88;;;;;;;3.14;75.93;96792.28;6182209;28;20042;-61
2022/11/12 00:50:21;;;;;;;3.70;2.55;;;;;;;3.19;75.94;96794.69;6181021;28;20465;-61
2022/11/12 00:53:22;;;;;;;4.68;2.20;;;;;;;3.19;75.95;96793.84;6182202;28;20120;-61
2022/11/12 00:56:28;;;;;;;5.72;2.80;;;;;;;3.02;76.44;96771.06;6182123;28;20049;-61
2022/11/12 00:59:30;;;;;;;3.63;2.03;;;;;;;3.11;76.54;96779.41;6189166;28;20065;-62
2022/11/12 01:02:34;;;;;;;4.32;2.70;;;;;;;3.08;76.22;96770.84;6185394;28;20038;-61
2022/11/12 01:05:39;;;;;;;4.07;2.42;;;;;;;3.04;76.83;96764.06;6186905;28;20046;-62
2022/11/12 01:08:44;;;;;;;4.22;2.65;;;;;;;3.01;76.99;96765.03;6182738;28;20048;-61
2022/11/12 01:11:51;;;;;;;3.00;2.10;;;;;;;3.10;77.01;96750.84;6185151;28;20501;-61
2022/11/12 01:14:52;;;;;;;2.92;1.92;;;;;;;3.14;76.66;96744.59;6185476;28;20112;-62
2022/11/12 01:17:56;;;;;;;4.13;2.97;;;;;;;2.98;77.31;96739.16;6186865;28;20082;-61
2022/11/12 01:21:06;;;;;;;3.85;2.40;;;;;;;2.93;77.78;96733.25;6184056;28;20050;-62
2022/11/12 01:24:10;;;;;;;5.38;2.55;;;;;;;3.01;78.13;96741.63;6183907;28;20529;-61
2022/11/12 01:27:11;;;;;;;3.67;2.75;;;;;;;2.93;78.55;96730.66;6183398;28;20050;-61
2022/11/12 01:30:13;;;;;;;5.68;2.50;;;;;;;2.98;78.33;96733.09;6182229;28;20414;-62
2022/11/12 01:33:17;;;;;;;3.88;2.50;;;;;;;2.97;78.33;96737.44;6184669;28;20054;-61
2022/11/12 01:36:23;;;;;;;3.08;2.55;;;;;;;2.98;78.08;96736.53;6181248;28;20039;-62
2022/11/12 01:39:27;;;;;;;5.88;3.45;;;;;;;2.85;77.98;96737.88;6181696;28;20050;-62
2022/11/12 01:42:33;;;;;;;7.10;2.85;;;;;;;2.84;78.74;96746.59;6188896;28;20809;-63
2022/11/12 01:45:35;;;;;;;5.45;2.95;;;;;;;2.80;78.68;96740.69;6192379;28;20087;-62
2022/11/12 01:48:47;;;;;;;6.53;3.47;;;;;;;2.94;78.34;96737.53;6192315;28;20437;-63
2022/11/12 01:51:53;;;;;;;7.35;4.05;;;;;;;2.94;78.02;96737.53;6186165;28;20104;-62
2022/11/12 01:55:04;;;;;;;5.97;3.45;;;;;;;3.12;77.77;96731.69;6182970;28;20042;-62
2022/11/12 01:58:10;;;;;;;5.82;3.15;;;;;;;3.14;77.81;96731.59;6181701;28;20062;-62
2022/11/12 02:01:12;;;;;;;7.45;3.63;;;;;;;3.22;77.30;96723.53;6181796;28;20730;-62
2022/11/12 02:04:16;;;;;;;3.67;3.10;;;;;;;3.28;77.01;96729.31;6182579;28;20094;-62
2022/11/12 02:07:18;;;;;;;5.07;3.22;;;;;;;3.23;76.88;96733.00;6182016;28;20406;-62
2022/11/12 02:10:21;;;;;;;3.08;2.25;;;;;;;3.47;75.61;96737.28;6181628;28;20050;-63
2022/11/12 02:16:53;;;;;;;2.17;1.42;;;;;;;3.59;74.94;96726.41;6180538;28;20061;-62
2022/11/12 02:19:58;;;;;;;2.80;1.77;;;;;;;3.65;74.23;96703.63;6184157;28;20521;-62
2022/11/12 02:23:00;;;;;;;1.77;1.42;;;;;;;3.60;74.00;96704.69;6182828;28;20050;-62
2022/11/12 02:26:04;;;;;;;1.67;0.90;;;;;;;3.61;74.04;96702.91;6175771;28;20057;-62
2022/11/12 02:29:11;;;;;;;2.05;1.40;;;;;;;3.65;73.77;96708.84;6177173;28;20051;-62
2022/11/12 02:32:15;;;;;;;1.52;1.00;;;;;;;3.62;73.54;96714.16;6178912;28;20050;-62
2022/11/12 02:35:18;;;;;;;1.17;1.05;;;;;;;3.77;72.70;96703.16;6182423;28;20050;-63
2022/11/12 02:38:25;;;;;;;1.73;1.13;;;;;;;3.67;72.88;96684.47;6181030;28;20038;-62
2022/11/12 02:41:29;;;;;;;0.98;0.82;;;;;;;3.78;72.34;96681.41;6181574;28;20050;-62
2022/11/12 02:44:31;;;;;;;1.38;1.00;;;;;;;3.63;72.45;96654.28;6178220;28;20053;-62
2022/11/12 02:47:32;;;;;;;0.80;0.60;;;;;;;3.54;72.47;96675.47;6184038;28;20062;-62
2022/11/12 02:50:36;;;;;;;0.70;0.60;;;;;;;3.39;72.81;96650.91;6180759;28;20047;-62
2022/11/12 02:53:37;;;;;;;0.80;0.77;;;;;;;3.26;73.25;96657.50;6181311;28;20193;-62
2022/11/12 02:56:38;;;;;;;0.50;0.50;;;;;;;3.36;72.72;96651.03;6180279;28;20088;-61
2022/11/12 02:59:40;;;;;;;2.30;0.80;;;;;;;3.26;73.18;96660.13;6183099;28;20101;-62
2022/11/12 03:02:57;;;;;;;0.80;0.52;;;;;;;3.29;72.66;96649.59;6176774;28;22744;-62
2022/11/12 03:06:00;;;;;;;0.75;0.60;;;;;;;3.13;73.29;96649.34;6180585;28;20084;-62
2022/11/12 03:09:01;;;;;;;0.60;0.57;;;;;;;3.23;73.36;96655.00;6186117;28;20050;-62
2022/11/12 03:12:05;;;;;;;0.85;0.50;;;;;;;3.44;72.23;96646.38;6177592;28;20417;-64
2022/11/12 03:15:10;;;;;;;0.68;0.47;;;;;;;3.36;72.49;96656.22;6178725;28;20414;-63
2022/11/12 03:18:16;;;;;;;0.80;0.55;;;;;;;3.59;71.37;96666.56;6161066;28;20050;-60
2022/11/12 03:21:22;;;;;;;0.50;0.50;;;;;;;3.69;70.99;96680.03;6181362;28;20038;-61
2022/11/12 03:24:28;;;;;;;0.30;0.30;;;;;;;3.67;70.73;96665.41;6183685;28;20046;-60
2022/11/12 03:27:31;;;;;;;0.30;0.30;;;;;;;3.54;71.07;96671.09;6181210;28;20158;-61
2022/11/12 03:30:42;;;;;;;0.70;0.40;;;;;;;3.50;71.30;96668.69;6186423;28;20116;-61
2022/11/12 03:33:43;;;;;;;0.40;0.35;;;;;;;3.52;71.52;96669.47;6178277;28;20190;-61
2022/11/12 03:36:45;;;;;;;0.40;0.40;;;;;;;3.45;71.38;96671.44;6195696;28;20034;-62
2022/11/12 03:39:49;;;;;;;0.40;0.40;;;;;;;3.57;71.16;96670.97;6184706;28;20042;-61
2022/11/12 03:42:51;;;;;;;1.25;0.40;;;;;;;3.62;71.07;96662.97;6177224;28;20074;-61
2022/11/12 03:45:52;;;;;;;0.52;0.40;;;;;;;3.81;69.71;96669.13;6181105;28;20058;-60
2022/11/12 03:48:54;;;;;;;0.40;0.40;;;;;;;3.75;70.28;96658.13;6179887;28;20047;-61
2022/11/12 03:51:55;;;;;;;0.47;0.47;;;;;;;3.80;70.03;96667.44;6163051;28;20531;-62
2022/11/12 03:55:00;;;;;;;0.30;0.30;;;;;;;3.87;69.76;96662.81;6182512;28;20050;-62
2022/11/12 03:58:07;;;;;;;0.30;0.30;;;;;;;3.74;69.92;96659.06;6185900;28;20046;-61
2022/11/12 04:01:14;;;;;;;0.50;0.40;;;;;;;3.91;69.65;96668.78;6184338;28;20409;-62
2022/11/12 04:04:20;;;;;;;0.40;0.20;;;;;;;4.00;69.11;96658.81;6183215;28;20034;-61
2022/11/12 04:10:52;;;;;;;0.70;0.50;;;;;;;3.92;69.31;96660.03;6130796;28;20050;-62
2022/11/12 04:13:59;;;;;;;0.40;0.30;;;;;;;4.10;68.71;96654.03;6183559;28;20046;-63
2022/11/12 04:23:45;;;;;;;0.47;0.25;;;;;;;4.44;67.38;96637.78;6186682;28;20038;-61
2022/11/12 04:26:46;;;;;;;1.00;0.60;;;;;;;4.48;67.32;96646.34;6184329;28;20064;-61
2022/11/12 04:33:13;;;;;;;0.35;0.35;;;;;;;4.68;67.31;96629.81;6185329;28;20440;-62
2022/11/12 04:36:17;;;;;;;;;;;;;;;4.77;66.62;96642.41;6183403;28;20043;-62
2022/11/12 04:39:18;;;;;;;0.40;0.40;;;;;;;4.77;65.73;96638.97;6185754;28;19921;-62
2022/11/12 04:45:48;;;;;;;0.40;0.40;;;;;;;4.78;66.19;96666.72;6184055;28;20050;-61
2022/11/12 04:48:52;;;;;;;0.20;0.20;;;;;;;4.81;66.17;96672.66;6184327;28;20046;-62
2022/11/12 04:52:04;;;;;;;0.30;0.30;;;;;;;4.59;66.46;96666.72;6185116;28;20117;-61
2022/11/12 04:55:06;;;;;;;0.20;0.20;;;;;;;4.82;65.74;96682.16;6185360;28;20049;-62
2022/11/12 04:58:13;;;;;;;0.40;0.40;;;;;;;4.80;65.58;96685.75;6184040;28;20113;-61
2022/11/12 05:01:17;;;;;;;0.88;0.80;;;;;;;4.68;65.36;96666.28;6183554;28;20464;-61
2022/11/12 05:04:19;;;;;;;1.52;0.60;;;;;;;4.66;66.09;96686.34;6183571;28;20041;-62
2022/11/12 05:07:25;;;;;;;0.80;0.60;;;;;;;4.69;65.56;96671.41;6185017;28;20051;-61
2022/11/12 05:10:27;;;;;;;0.82;0.60;;;;;;;4.88;64.70;96683.66;6183190;28;20038;-63
2022/11/12 05:13:30;;;;;;;;;;;;;;;5.08;64.25;96680.13;6181139;28;20042;-61
2022/11/12 05:16:31;;;;;;;0.32;0.32;;;;;;;4.78;64.83;96683.19;6182941;28;19929;-62
2022/11/12 05:19:33;;;;;;;0.63;0.40;;;;;;;4.70;65.05;96680.13;6184799;28;20046;-62
2022/11/12 05:22:37;;;;;;;0.30;0.30;;;;;;;4.72;65.13;96667.84;6183178;28;20030;-62
2022/11/12 05:25:41;;;;;;;0.47;0.43;;;;;;;4.64;65.14;96667.31;6182120;28;20049;-62
2022/11/12 05:28:44;;;;;;;0.63;0.50;;;;;;;4.51;65.95;96659.22;6193104;28;20046;-62
2022/11/12 05:31:51;;;;;;;0.35;0.30;;;;;;;4.49;65.75;96654.06;6195310;28;20417;-62
2022/11/12 05:34:55;;;;;;;0.30;0.30;;;;;;;4.47;65.92;96653.31;6173979;28;20038;-63
2022/11/12 05:37:59;;;;;;;0.20;0.20;;;;;;;4.45;66.49;96649.91;6188132;28;20053;-62
2022/11/12 05:41:00;;;;;;;0.40;0.40;;;;;;;4.41;66.49;96652.72;6193499;28;20041;-62
2022/11/12 05:44:01;;;;;;;0.22;0.22;;;;;;;4.38;66.74;96645.03;6193912;28;20181;-61
2022/11/12 05:47:06;;;;;;;0.80;0.52;;;;;;;4.43;66.73;96650.91;6193527;28;20397;-61
2022/11/12 05:50:09;;;;;;;0.75;0.65;;;;;;;4.53;66.30;96630.47;6197051;28;20050;-61
2022/11/12 05:53:13;;;;;;;0.98;0.32;;;;;;;4.57;65.51;96643.31;6185858;28;20137;-61
2022/11/12 05:56:19;;;;;;;0.40;0.40;;;;;;;4.58;65.61;96638.94;6180231;28;20093;-61
2022/11/12 05:59:21;;;;;;;0.43;0.30;;;;;;;4.45;66.26;96639.50;6181579;28;20112;-61
2022/11/12 06:02:25;;;;;;;0.40;0.40;;;;;;;4.59;65.64;96636.28;6180871;28;20464;-62
2022/11/12 06:05:28;;;;;;;0.47;0.43;;;;;;;4.39;66.50;96634.56;6183419;28;20042;-62
2022/11/12 06:08:33;;;;;;;0.95;0.38;;;;;;;4.57;66.01;96653.75;6179412;28;20038;-62
2022/11/12 06:11:39;;;;;;;0.30;0.30;;;;;;;4.60;65.64;96611.06;6180374;28;20065;-62
2022/11/12 06:14:43;;;;;;;0.40;0.30;;;;;;;4.61;65.42;96629.22;6182301;28;20050;-61
2022/11/12 06:17:47;;;;;;;0.57;0.40;;;;;;;4.53;65.67;96609.63;6181387;28;20612;-62
2022/11/12 06:24:21;;;;;;;1.95;0.30;;;;;;;4.67;65.22;96623.75;6183016;28;20046;-61
2022/11/12 06:27:26;;;;;;;0.30;0.30;;;;;;;4.56;65.34;96625.13;6175525;28;20165;-60
2022/11/12 06:30:27;;;;;;;0.50;0.50;;;;;;;4.53;65.61;96615.72;6180818;28;20039;-61
2022/11/12 06:33:33;;;;;;;;;;;;;;;4.81;64.91;96628.34;6186746;28;20034;-61
2022/11/12 06:36:34;;;;;;;0.30;0.30;;;;;;;4.61;65.20;96617.97;6183034;28;19926;-61
2022/11/12 06:39:41;;;;;;;0.30;0.30;;;;;;;4.58;65.60;96607.66;6180475;28;20038;-61
2022/11/12 06:42:47;;;;;;;0.20;0.20;;;;;;;4.45;66.08;96617.81;6177011;28;20034;-61
2022/11/12 06:45:48;;;;;;;0.28;0.28;;;;;;;4.55;65.78;96608.66;6179682;28;20057;-61
2022/11/12 06:48:54;;;;;;;1.25;0.40;;;;;;;4.55;65.83;96602.59;6182913;28;20049;-62
2022/11/12 06:51:55;;;;;;;0.30;0.30;;;;;;;4.39;66.60;96589.44;6181518;28;20521;-62
2022/11/12 06:54:57;;;;;;;0.30;0.25;;;;;;;4.46;66.57;96596.88;6182089;28;20050;-61
2022/11/12 06:57:59;;;;;;;0.20;0.20;;;;;;;4.55;66.10;96581.75;6176284;28;20057;-61
2022/11/12 07:01:06;;;;;;;0.30;0.30;;;;;;;4.54;66.18;96587.91;6184097;28;20424;-62
2022/11/12 07:04:10;;;;;;;0.30;0.30;;;;;;;4.59;66.16;96578.13;6179576;28;20050;-62
2022/11/12 07:07:14;;;;;;;0.28;0.28;;;;;;;4.70;65.57;96579.31;6184633;28;20066;-62
2022/11/12 07:10:18;;;;;;;0.30;0.30;;;;;;;4.66;65.20;96561.25;6183549;28;20042;-61
2022/11/12 07:13:19;;;;;;;1.00;0.47;;;;;;;4.74;65.23;96561.75;6165867;28;20046;-61
2022/11/12 07:16:21;;;;;;;1.38;0.70;;;;;;;4.76;65.17;96559.09;6180317;28;20050;-61
2022/11/12 07:19:25;;;;;;;0.65;0.60;;;;;;;4.78;64.54;96552.88;6182014;28;20448;-62
2022/11/12 07:22:26;;;;;;;1.98;0.93;;;;;;;4.65;65.20;96551.78;6180748;28;20816;-61
2022/11/12 07:25:32;;;;;;;0.32;0.30;;;;;;;4.79;64.58;96549.38;6176592;28;20043;-62
2022/11/12 07:28:36;;;;;;;4.47;0.73;;;;;;;4.74;64.96;96546.13;6185392;28;20038;-63
2022/11/12 07:31:41;;;;;;;0.20;0.20;;;;;;;4.82;64.44;96537.94;6184853;28;20572;-61
2022/11/12 07:34:43;;;;;;;0.47;0.40;;;;;;;4.79;64.71;96538.94;6184565;28;20418;-62
2022/11/12 07:37:47;;;;;;;0.20;0.20;;;;;;;4.76;64.85;96523.44;6197247;28;20049;-62
2022/11/12 07:40:49;;;;;;;0.88;0.30;;;;;;;4.85;64.88;96520.38;6194840;28;20035;-61
2022/11/12 07:43:56;;;;;;;0.95;0.40;;;;;;;4.84;64.93;96531.75;6186269;28;20061;-61
2022/11/12 07:47:00;;;;;;;1.08;0.45;;;;;;;4.83;65.07;96530.03;6183378;28;20047;-61
2022/11/12 07:50:01;;;;;;;0.63;0.50;;;;;;;4.63;65.78;96528.38;6182260;28;20057;-61
2022/11/12 07:53:04;;;;;;;0.52;0.40;;;;;;;4.66;66.25;96511.75;6186498;28;20045;-61
2022/11/12 07:56:06;;;;;;;1.05;0.50;;;;;;;4.91;65.77;96512.28;6183545;28;20066;-61
2022/11/12 07:59:07;;;;;;;0.80;0.80;;;;;;;4.68;66.90;96520.34;6185711;28;20034;-62
2022/11/12 08:02:10;;;;;;;0.60;0.60;;;;;;;4.70;67.08;96518.53;6183085;28;20038;-61
2022/11/12 08:05:16;;;;;;;1.20;0.95;;;;;;;4.88;66.95;96512.41;6187565;28;20049;-61
2022/11/12 08:08:19;;;;;;;1.25;1.13;;;;;;;4.90;67.09;96502.78;6180888;28;20154;-61
2022/11/12 08:11:23;;;;;;;1.08;0.90;;;;;;;5.03;67.10;96489.13;6180656;28;20042;-62
2022/11/12 08:14:25;;;;;;;0.75;0.75;;;;;;;5.04;66.78;96503.84;6183258;28;20129;-62
2022/11/12 08:17:26;;;;;;;0.95;0.90;;;;;;;5.23;66.45;96501.19;6185742;28;20050;-61
2022/11/12 08:20:27;;;;;;;0.75;0.75;;;;;;;5.32;66.12;96516.38;6184583;28;20129;-61
2022/11/12 08:23:32;;;;;;;0.73;0.70;;;;;;;5.23;65.63;96481.16;6182851;28;20038;-62
2022/11/12 08:26:36;;;;;;;1.02;0.70;;;;;;;5.18;66.05;96493.59;6185922;28;20042;-62
2022/11/12 08:29:37;;;;;;;1.27;0.75;;;;;;;5.15;65.99;96484.16;6180213;28;20050;-62
2022/11/12 08:32:43;;;;;;;0.70;0.70;;;;;;;5.36;65.17;96478.78;6185481;28;20042;-62
2022/11/12 08:35:44;;;;;;;1.08;0.40;;;;;;;5.24;65.85;96462.00;6183141;28;20042;-62
2022/11/12 08:38:53;;;;;;;1.10;1.00;;;;;;;5.22;65.85;96481.25;6186238;28;20042;-62
2022/11/12 08:42:00;;;;;;;0.80;0.73;;;;;;;5.39;65.02;96460.38;6179666;28;20042;-61
2022/11/12 08:45:04;;;;;;;0.50;0.50;;;;;;;5.48;64.40;96451.22;6186922;28;20042;-62
2022/11/12 08:48:12;;;;;;;0.60;0.55;;;;;;;5.40;64.64;96457.66;6181800;28;20050;-62
2022/11/12 08:51:16;;;;;;;2.25;0.68;;;;;;;5.36;64.56;96466.59;6185369;28;20509;-61
2022/11/12 08:54:20;;;;;;;0.80;0.80;;;;;;;5.35;64.94;96462.31;6185164;28;20054;-61
2022/11/12 08:57:26;;;;;;;0.50;0.50;;;;;;;5.28;64.45;96462.69;6182901;28;20054;-63
2022/11/12 09:00:42;;;;;;;0.43;0.43;;;;;;;5.29;63.96;96454.75;6183907;28;20047;-62
2022/11/12 09:03:48;;;;;;;0.60;0.32;;;;;;;5.24;63.22;96446.34;6183710;28;20049;-61
2022/11/12 09:06:52;;;;;;;0.45;0.45;;;;;;;5.19;62.94;96453.56;6183823;28;20568;-62
2022/11/12 09:09:56;;;;;;;0.80;0.35;;;;;;;5.15;62.36;96454.59;6183551;28;20689;-61
2022/11/12 09:13:03;;;;;;;0.32;0.20;;;;;;;5.06;62.60;96437.66;6163777;28;20050;-62
2022/11/12 09:16:08;;;;;;;0.60;0.60;;;;;;;4.87;63.33;96444.69;6183901;28;20042;-62
2022/11/12 09:19:10;;;;;;;0.45;0.45;;;;;;;4.70;63.58;96435.13;6185227;28;20057;-62
2022/11/12 09:22:14;;;;;;;0.70;0.40;;;;;;;4.78;63.19;96432.97;6185733;28;20042;-60
2022/11/12 09:25:15;;;;;;;0.70;0.50;;;;;;;4.71;63.35;96422.00;6184641;28;20054;-62
2022/11/12 09:28:17;;;;;;;0.40;0.40;;;;;;;4.75;63.29;96412.25;6191064;28;20039;-61
2022/11/12 09:31:19;;;;;;;1.10;0.40;;;;;;;4.71;63.27;96395.09;6188788;28;20570;-62
2022/11/12 09:34:25;;;;;;;0.73;0.68;;;;;;;4.66;63.16;96397.09;6198122;28;20042;-62
2022/11/12 09:37:30;;;;;;;0.95;0.40;;;;;;;4.90;62.02;96390.66;6194072;28;20069;-61
2022/11/12 09:41:07;;;;;;;0.60;0.60;;;;;;;4.72;62.35;96371.56;6181641;28;20053;-61
2022/11/12 09:44:15;;;;;;;0.40;0.40;;;;;;;4.75;62.61;96344.50;6164890;28;20050;-61
2022/11/12 09:47:26;;;;;;;0.40;0.40;;;;;;;4.67;62.74;96359.66;6182167;28;20042;-62
2022/11/12 09:50:37;;;;;;;0.95;0.70;;;;;;;4.62;63.14;96353.88;6185008;28;20054;-62
2022/11/12 09:53:53;;;;;;;0.70;0.60;;;;;;;4.77;63.03;96353.09;6180267;28;20046;-62
2022/11/12 09:57:01;;;;;;;0.55;0.55;;;;;;;4.54;63.62;96340.38;6183616;28;20050;-61
2022/11/12 10:00:12;;;;;;;1.05;0.68;;;;;;;4.38;64.54;96345.47;6178474;28;20076;-62
2022/11/12 10:03:24;;;;;;;0.38;0.38;;;;;;;4.46;64.16;96333.75;6178442;28;20050;-62
2022/11/12 10:06:35;;;;;;;0.55;0.30;;;;;;;4.53;63.62;96296.97;6183560;28;20046;-61
2022/11/12 10:10:07;;;;;;;0.90;0.70;;;;;;;4.30;64.14;96311.97;6181308;28;20050;-61
2022/11/12 10:13:08;;;;;;;1.27;0.88;;;;;;;4.26;64.83;96320.88;6175561;28;20665;-61
2022/11/12 10:16:42;;;;;;;0.60;0.60;;;;;;;4.20;65.06;96316.81;6180530;28;20038;-63
2022/11/12 10:20:17;;;;;;;0.50;0.50;;;;;;;4.23;65.17;96315.81;6185204;28;20042;-62
2022/11/12 10:23:28;;;;;;;0.85;0.70;;;;;;;4.12;65.27;96318.94;6180564;28;20413;-61
2022/11/12 10:26:33;;;;;;;0.60;0.60;;;;;;;4.18;65.29;96325.59;6178385;28;20048;-61
2022/11/12 10:29:38;;;;;;;0.40;0.38;;;;;;;4.34;64.31;96317.91;6181523;28;20050;-62
2022/11/12 10:32:43;;;;;;;0.60;0.60;;;;;;;4.29;64.28;96325.94;6184811;28;20133;-62
2022/11/12 10:35:46;;;;;;;0.40;0.40;;;;;;;4.43;63.49;96318.28;6179936;28;20857;-62
2022/11/12 10:38:51;;;;;;;0.50;0.50;;;;;;;4.24;64.03;96318.34;6182875;28;20125;-62
2022/11/12 10:42:05;;;;;;;0.40;0.40;;;;;;;4.30;63.92;96317.19;6165638;28;20204;-61
2022/11/12 10:45:33;;;;;;;0.65;0.65;;;;;;;4.30;63.94;96300.72;6177933;28;20397;-61
2022/11/12 10:48:35;;;;;;;0.38;0.38;;;;;;;4.27;63.97;96296.50;6180776;28;20575;-62
2022/11/12 10:51:37;;;;;;;0.52;0.50;;;;;;;4.18;64.59;96317.81;6181709;28;20038;-62
2022/11/12 10:54:41;;;;;;;0.60;0.50;;;;;;;4.03;64.72;96304.59;6182109;28;20061;-61
2022/11/12 10:57:44;;;;;;;;;;;;;;;4.07;64.75;96294.03;6180968;28;20038;-61
2022/11/12 11:01:02;;;;;;;0.50;0.50;;;;;;;4.01;65.25;96288.22;6179412;28;20387;-62
2022/11/12 11:04:21;;;;;;;1.35;0.68;;;;;;;4.00;65.21;96294.34;6183531;28;20038;-62
2022/11/12 11:07:24;;;;;;;0.63;0.60;;;;;;;4.10;65.11;96273.06;6179251;28;20050;-61
2022/11/12 11:10:29;;;;;;;0.95;0.70;;;;;;;3.98;65.37;96259.72;6178123;28;20038;-62
2022/11/12 11:13:33;;;;;;;1.02;0.95;;;;;;;4.03;65.24;96278.56;6180426;28;20042;-61
2022/11/12 11:16:51;;;;;;;0.70;0.70;;;;;;;4.01;65.22;96258.72;6179623;28;20065;-62
2022/11/12 11:19:57;;;;;;;0.70;0.50;;;;;;;3.95;64.77;96239.03;6190726;28;20092;-62
2022/11/12 11:23:22;;;;;;;0.55;0.55;;;;;;;3.96;65.37;96253.78;6193828;28;20042;-61
2022/11/12 11:26:35;;;;;;;0.60;0.57;;;;;;;3.92;65.44;96244.41;6172252;28;20054;-61
2022/11/12 11:29:51;;;;;;;0.68;0.47;;;;;;;3.89;65.57;96226.34;6193472;28;20074;-62
2022/11/12 11:33:13;;;;;;;0.93;0.80;;;;;;;3.88;65.87;96223.78;6182732;28;20061;-61
2022/11/12 11:36:33;;;;;;;0.65;0.65;;;;;;;3.87;65.90;96225.56;6181450;28;20129;-61
2022/11/12 11:39:52;;;;;;;1.55;1.15;;;;;;;3.84;66.17;96230.91;6174839;28;20053;-62
2022/11/12 11:42:58;;;;;;;1.75;1.00;;;;;;;3.80;66.57;96217.22;6178314;28;20070;-61
2022/11/12 11:46:42;;;;;;;1.90;1.30;;;;;;;3.80;66.85;96219.00;6184030;28;20508;-68
2022/11/12 11:50:07;;;;;;;1.85;1.40;;;;;;;3.72;67.29;96202.91;6180609;28;20058;-67
2022/11/12 11:53:35;;;;;;;1.77;1.20;;;;;;;3.86;66.71;96177.03;6188134;28;20733;-68
2022/11/12 11:56:44;;;;;;;2.08;1.55;;;;;;;3.71;66.95;96188.19;6194436;28;20042;-67
2022/11/12 12:00:00;;;;;;;13.18;1.60;;;;;;;3.73;67.40;96192.41;6194407;28;20069;-68
2022/11/12 12:03:16;;;;;;;2.03;1.70;;;;;;;3.53;68.08;96180.34;6181993;28;20066;-67
2022/11/12 12:06:28;;;;;;;2.03;1.65;;;;;;;3.58;67.06;96173.19;6185271;28;20050;-67
2022/11/12 12:09:43;;;;;;;1.65;1.45;;;;;;;3.32;68.12;96171.00;6177779;28;20050;-67
2022/11/12 12:13:09;;;;;;;1.52;1.42;;;;;;;3.29;68.20;96166.78;6174464;28;20050;-68
2022/11/12 12:16:30;;;;;;;2.28;1.70;;;;;;;3.50;67.05;96170.09;6181597;28;20038;-68
2022/11/12 12:19:54;;;;;;;1.05;0.70;;;;;;;3.63;66.56;96182.53;6189769;28;20489;-70
2022/11/12 12:23:10;;;;;;;2.30;1.48;;;;;;;3.44;66.85;96175.59;6166508;28;20049;-69
2022/11/12 12:26:23;;;;;;;1.88;1.25;;;;;;;3.53;66.90;96175.16;6174180;28;20063;-70
2022/11/12 12:29:33;;;;;;;1.67;1.58;;;;;;;3.65;65.88;96167.66;6179170;28;20046;-68
2022/11/12 12:32:54;;;;;;;3.35;1.92;;;;;;;3.53;66.62;96174.31;6180136;28;20563;-68
2022/11/12 12:36:02;;;;;;;1.98;1.77;;;;;;;3.37;66.94;96143.03;6184444;28;20034;-69
2022/11/12 12:39:26;;;;;;;2.92;2.05;;;;;;;3.47;67.07;96159.84;6187569;28;20791;-69
2022/11/12 12:42:55;;;;;;;2.00;1.67;;;;;;;3.32;67.41;96150.19;6182522;28;20071;-69
2022/11/12 12:46:03;;;;;;;1.15;1.05;;;;;;;3.34;67.24;96153.53;6191368;28;20087;-69
2022/11/12 12:49:10;;;;;;;1.98;1.70;;;;;;;3.29;67.28;96139.94;6188736;28;20398;-69
2022/11/12 12:52:15;;;;;;;1.35;1.17;;;;;;;3.31;67.25;96122.47;6187143;28;20042;-72
2022/11/12 12:55:43;;;;;;;3.50;2.15;;;;;;;3.26;67.39;96140.09;6186472;28;20050;-68
2022/11/12 12:58:48;;;;;;;1.90;1.80;;;;;;;3.29;67.31;96119.13;6184780;28;20050;-68
2022/11/12 13:01:58;;;;;;;3.28;1.95;;;;;;;3.26;67.53;96120.13;6185889;28;20547;-68
2022/11/12 13:05:05;;;;;;;2.92;1.90;;;;;;;3.22;67.53;96112.53;6182405;28;20128;-68
2022/11/12 13:08:19;;;;;;;1.45;1.17;;;;;;;3.11;67.87;96111.31;6178773;28;20096;-68
2022/11/12 13:15:12;;;;;;;1.25;1.15;;;;;;;3.28;67.47;96091.44;6181524;28;20432;-68
2022/11/12 13:18:36;;;;;;;1.92;1.63;;;;;;;3.25;67.70;96102.00;6180699;28;20058;-68
2022/11/12 13:21:43;;;;;;;1.67;1.48;;;;;;;3.13;67.99;96093.84;6182005;28;20066;-68
2022/11/12 13:25:19;;;;;;;2.30;1.83;;;;;;;3.08;68.19;96082.00;6181441;28;20039;-68
2022/11/12 13:28:22;;;;;;;2.35;1.77;;;;;;;2.99;68.39;96070.28;6145520;28;20058;-68
2022/11/12 13:31:28;;;;;;;1.45;1.13;;;;;;;2.88;68.54;96056.97;6183296;28;20042;-68
2022/11/12 13:34:38;;;;;;;2.13;1.80;;;;;;;2.95;68.51;96055.78;6180340;28;20054;-68
2022/11/12 13:37:50;;;;;;;2.08;1.60;;;;;;;2.85;68.92;96076.13;6182979;28;20050;-69
2022/11/12 13:41:15;;;;;;;1.63;1.52;;;;;;;2.90;69.07;96039.56;6180797;28;20050;-68
2022/11/12 13:44:16;;;;;;;2.75;1.60;;;;;;;2.84;69.17;96058.03;6180271;28;20050;-68
2022/11/12 13:47:23;;;;;;;2.67;2.03;;;;;;;2.71;69.47;96044.75;6189748;28;20046;-69
2022/11/12 13:50:27;;;;;;;2.53;2.00;;;;;;;2.65;69.56;96030.31;6198570;28;20061;-68
2022/11/12 13:53:31;;;;;;;2.92;2.22;;;;;;;2.57;69.97;96042.81;6195890;28;20076;-68
2022/11/12 13:56:38;;;;;;;3.08;2.03;;;;;;;2.53;70.67;96017.06;6191166;28;20046;-68
2022/11/12 13:59:39;;;;;;;3.33;2.25;;;;;;;2.52;70.70;96016.25;6194090;28;20369;-69
2022/11/12 14:02:46;;;;;;;1.95;1.55;;;;;;;2.38;70.88;96003.06;6194907;28;20042;-68
2022/11/12 14:05:49;;;;;;;3.13;2.13;;;;;;;2.41;70.94;95995.13;6192830;28;20489;-68
2022/11/12 14:09:11;;;;;;;3.17;2.05;;;;;;;2.57;71.06;96005.63;6177760;28;20469;-69
2022/11/12 14:12:53;;;;;;;2.17;1.77;;;;;;;2.61;70.78;96008.00;6177074;28;20697;-68
2022/11/12 14:16:32;;;;;;;1.95;1.73;;;;;;;2.52;71.17;95987.66;6163933;28;20520;-68
2022/11/12 14:19:56;;;;;;;1.75;1.58;;;;;;;2.49;71.32;95998.19;6180706;28;20050;-69
2022/11/12 14:23:10;;;;;;;2.15;1.92;;;;;;;2.40;71.57;95977.84;6175828;28;20050;-68
2022/11/12 14:26:35;;;;;;;1.38;1.27;;;;;;;2.53;71.18;95975.53;6181609;28;20050;-68
2022/11/12 14:29:42;;;;;;;1.88;1.67;;;;;;;2.47;71.14;95980.09;6175872;28;20038;-68
2022/11/12 14:33:09;;;;;;;2.00;1.80;;;;;;;2.54;71.37;95974.59;6178262;28;20046;-67
2022/11/12 14:36:14;;;;;;;1.45;1.23;;;;;;;2.47;71.30;95958.47;6180241;28;20057;-69
2022/11/12 14:39:19;;;;;;;2.13;1.55;;;;;;;2.47;71.06;95940.31;6177810;28;20061;-67
2022/11/12 14:42:21;;;;;;;1.83;1.48;;;;;;;2.55;70.78;95945.09;6175047;28;20810;-67
2022/11/12 14:45:23;;;;;;;1.35;1.17;;;;;;;2.47;71.46;95937.72;6180907;28;20406;-67
2022/11/12 14:49:12;;;;;;;2.13;1.23;;;;;;;2.47;71.22;95932.50;6181716;28;20050;-68
2022/11/12 14:52:27;;;;;;;1.88;1.23;;;;;;;2.46;71.45;95941.19;6174592;28;20397;-67
2022/11/12 14:55:36;;;;;;;2.20;1.67;;;;;;;2.35;71.61;95917.50;6179211;28;20581;-66
2022/11/12 14:58:41;;;;;;;1.73;1.33;;;;;;;2.38;71.78;95922.56;6178134;28;20046;-67
2022/11/12 15:02:13;;;;;;;1.67;1.58;;;;;;;2.35;71.74;95912.31;6173566;28;20057;-67
2022/11/12 15:05:19;;;;;;;1.90;1.73;;;;;;;2.29;72.13;95908.25;6174649;28;20127;-72
2022/11/12 15:08:39;;;;;;;0.70;0.70;;;;;;;2.40;71.80;95905.16;6175767;28;20413;-67
2022/11/12 15:11:47;;;;;;;2.22;1.63;;;;;;;2.33;72.46;95893.41;6170257;28;20054;-65
2022/11/12 15:14:50;;;;;;;1.67;1.13;;;;;;;2.18;72.43;95863.78;6174017;28;20069;-65
2022/11/12 15:17:58;;;;;;;1.23;0.90;;;;;;;2.25;72.38;95879.00;6183817;28;20149;-64
2022/11/12 15:21:17;;;;;;;1.75;1.08;;;;;;;2.29;72.83;95871.91;6183578;28;20469;-67
2022/11/12 15:24:31;;;;;;;0.68;0.68;;;;;;;2.28;72.69;95859.84;6179942;28;20038;-65